createdAt,value
2022-11-04T05:03:30.166Z,-89
2022-11-04T05:06:01.327Z,-88
2022-11-04T05:08:29.332Z,-88
2022-11-04T05:10:57.674Z,-88
2022-11-04T05:13:30.104Z,-88
2022-11-04T05:15:58.373Z,-88
2022-11-04T05:18:26.717Z,-80
2022-11-04T05:20:56.231Z,-79
2022-11-04T05:23:25.255Z,-79
2022-11-04T05:25:53.437Z,-79
2022-11-04T05:28:22.927Z,-80
2022-11-04T05:30:51.423Z,-79
2022-11-04T05:33:19.758Z,-79
2022-11-04T05:35:48.299Z,-80
2022-11-04T05:38:18.377Z,-80
2022-11-04T05:40:47.339Z,-79
2022-11-04T05:43:15.927Z,-80
2022-11-04T05:45:46.998Z,-80
2022-11-04T05:48:15.251Z,-80
2022-11-04T05:50:44.154Z,-80
2022-11-04T05:53:12.793Z,-80
2022-11-04T05:55:42.981Z,-80
2022-11-04T05:58:11.732Z,-79
2022-11-04T06:00:41.421Z,-79
2022-11-04T06:03:13.787Z,-79
2022-11-04T06:05:44.861Z,-81
2022-11-04T06:08:14.197Z,-80
2022-11-04T06:10:44.519Z,-81
2022-11-04T06:13:13.277Z,-81
2022-11-04T06:15:41.776Z,-79
2022-11-04T06:18:10.377Z,-80
2022-11-04T06:20:39.192Z,-80
2022-11-04T06:23:07.423Z,-81
2022-11-04T06:25:35.679Z,-80
2022-11-04T06:28:05.773Z,-80
2022-11-04T06:30:35.794Z,-79
2022-11-04T06:33:03.865Z,-80
2022-11-04T06:35:32.217Z,-80
2022-11-04T06:38:00.371Z,-80
2022-11-04T06:40:28.506Z,-80
2022-11-04T06:42:56.778Z,-80
2022-11-04T06:45:26.662Z,-80
2022-11-04T06:47:54.954Z,-80
2022-11-04T06:50:23.251Z,-80
2022-11-04T06:52:53.702Z,-80
2022-11-04T06:55:22.295Z,-80
2022-11-04T06:57:50.723Z,-80
2022-11-04T07:00:19.279Z,-80
2022-11-04T07:02:50.823Z,-80
2022-11-04T07:05:19.264Z,-81
2022-11-04T07:07:47.299Z,-81
2022-11-04T07:10:15.533Z,-80
2022-11-04T07:12:45.039Z,-81
2022-11-04T07:15:13.971Z,-81
2022-11-04T07:17:43.468Z,-80
2022-11-04T07:20:13.963Z,-79
2022-11-04T07:22:44.447Z,-79
2022-11-04T07:25:12.947Z,-80
2022-11-04T07:27:42.333Z,-79
2022-11-04T07:30:12.399Z,-80
2022-11-04T07:32:41.042Z,-79
2022-11-04T07:35:10.607Z,-79
2022-11-04T07:37:40.564Z,-79
2022-11-04T07:40:10.374Z,-79
2022-11-04T07:42:38.818Z,-79
2022-11-04T07:45:08.431Z,-78
2022-11-04T07:47:36.691Z,-78
2022-11-04T07:50:10.731Z,-78
2022-11-04T07:52:42.144Z,-78
2022-11-04T07:55:11.207Z,-79
2022-11-04T07:57:39.732Z,-78
2022-11-04T08:00:09.807Z,-81
2022-11-04T08:02:38.091Z,-81
2022-11-04T08:05:07.478Z,-80
2022-11-04T08:07:35.815Z,-80
2022-11-04T08:10:06.031Z,-80
2022-11-04T08:12:34.482Z,-81
2022-11-04T08:15:03.972Z,-80
2022-11-04T08:17:33.098Z,-80
2022-11-04T08:20:02.801Z,-80
2022-11-04T08:22:33.101Z,-80
2022-11-04T08:25:01.819Z,-81
2022-11-04T08:27:31.605Z,-80
2022-11-04T08:30:00.386Z,-81
2022-11-04T08:32:28.646Z,-81
2022-11-04T08:34:57.559Z,-81
2022-11-04T08:37:26.675Z,-81
2022-11-04T08:39:54.829Z,-80
2022-11-04T08:42:23.258Z,-81
2022-11-04T08:44:54.325Z,-81
2022-11-04T08:47:22.545Z,-80
2022-11-04T08:49:50.783Z,-80
2022-11-04T08:52:20.315Z,-80
2022-11-04T08:54:52.235Z,-80
2022-11-04T08:57:23.220Z,-80
2022-11-04T08:59:52.395Z,-81
2022-11-04T09:02:23.231Z,-81
2022-11-04T09:04:51.907Z,-81
2022-11-04T09:07:21.226Z,-80
2022-11-04T09:09:49.629Z,-80
2022-11-04T09:12:17.713Z,-80
2022-11-04T09:14:47.356Z,-80
2022-11-04T09:17:15.951Z,-80
2022-11-04T09:19:45.672Z,-80
2022-11-04T09:22:15.133Z,-80
2022-11-04T09:24:45.526Z,-78
2022-11-04T09:27:14.763Z,-77
2022-11-04T09:29:44.247Z,-78
2022-11-04T09:32:13.093Z,-77
2022-11-04T09:34:41.444Z,-78
2022-11-04T09:37:10.984Z,-78
2022-11-04T09:39:39.523Z,-78
2022-11-04T09:42:35.311Z,-77
2022-11-04T09:45:22.872Z,-78
2022-11-04T09:47:52.664Z,-77
2022-11-04T09:50:25.920Z,-78
2022-11-04T09:53:00.187Z,-77
2022-11-04T09:55:34.344Z,-78
2022-11-04T09:58:04.507Z,-77
2022-11-04T10:00:34.704Z,-77
2022-11-04T10:03:18.149Z,-77
2022-11-04T10:05:57.699Z,-77
2022-11-04T10:08:38.288Z,-77
2022-11-04T10:11:11.259Z,-77
2022-11-04T10:13:54.044Z,-78
2022-11-04T10:16:35.841Z,-77
2022-11-04T10:19:17.387Z,-77
2022-11-04T10:21:49.410Z,-78
2022-11-04T10:24:38.786Z,-78
2022-11-04T10:27:14.931Z,-78
2022-11-04T10:29:55.735Z,-78
2022-11-04T10:32:27.998Z,-78
2022-11-04T10:34:58.541Z,-78
2022-11-04T10:37:27.262Z,-79
2022-11-04T10:40:18.411Z,-78
2022-11-04T10:42:46.679Z,-78
2022-11-04T10:45:16.427Z,-79
2022-11-04T10:47:52.406Z,-78
2022-11-04T10:50:35.353Z,-79
2022-11-04T10:53:13.147Z,-78
2022-11-04T10:55:49.633Z,-78
2022-11-04T10:58:21.570Z,-78
2022-11-04T11:00:49.964Z,-78
2022-11-04T11:03:30.604Z,-78
2022-11-04T11:06:23.985Z,-78
2022-11-04T11:08:53.024Z,-78
2022-11-04T11:14:32.085Z,-77
2022-11-04T11:17:19.400Z,-78
2022-11-04T11:19:51.854Z,-78
2022-11-04T11:22:36.717Z,-78
2022-11-04T11:25:18.575Z,-78
2022-11-04T11:27:49.243Z,-78
2022-11-04T11:30:23.571Z,-78
2022-11-04T11:32:55.904Z,-78
2022-11-04T11:35:27.003Z,-78
2022-11-04T11:37:55.447Z,-77
2022-11-04T11:40:28.426Z,-78
2022-11-04T11:42:57.253Z,-78
2022-11-04T11:45:27.713Z,-78
2022-11-04T11:47:56.343Z,-78
2022-11-04T11:50:31.239Z,-78
2022-11-04T11:53:15.184Z,-78
2022-11-04T11:55:47.941Z,-78
2022-11-04T12:01:24.255Z,-78
2022-11-04T12:09:43.334Z,-78
2022-11-04T12:12:30.176Z,-78
2022-11-04T12:15:14.036Z,-78
2022-11-04T12:17:54.489Z,-77
2022-11-04T12:20:31.963Z,-77
2022-11-04T12:23:02.241Z,-77
2022-11-04T12:25:36.721Z,-77
2022-11-04T12:28:11.785Z,-78
2022-11-04T12:30:47.875Z,-77
2022-11-04T12:33:27.172Z,-78
2022-11-04T12:36:04.898Z,-77
2022-11-04T12:38:44.206Z,-77
2022-11-04T12:41:38.008Z,-77
2022-11-04T12:44:12.792Z,-77
2022-11-04T12:46:46.846Z,-77
2022-11-04T12:49:34.871Z,-77
2022-11-04T12:52:09.254Z,-77
2022-11-04T12:54:54.966Z,-77
2022-11-04T12:57:30.144Z,-77
2022-11-04T13:00:11.859Z,-77
2022-11-04T13:02:44.592Z,-77
2022-11-04T13:05:32.383Z,-78
2022-11-04T13:08:11.306Z,-77
2022-11-04T13:10:45.383Z,-78
2022-11-04T13:13:16.663Z,-78
2022-11-04T13:15:48.066Z,-78
2022-11-04T13:18:20.433Z,-78
2022-11-04T13:21:00.730Z,-78
2022-11-04T13:23:35.933Z,-77
2022-11-04T13:26:05.482Z,-78
2022-11-04T13:28:34.138Z,-78
2022-11-04T13:31:05.667Z,-77
2022-11-04T13:33:41.648Z,-77
2022-11-04T13:36:26.641Z,-78
2022-11-04T13:38:56.299Z,-77
2022-11-04T13:41:40.761Z,-77
2022-11-04T13:44:17.003Z,-78
2022-11-04T13:46:49.903Z,-78
2022-11-04T13:49:23.596Z,-78
2022-11-04T13:52:07.856Z,-78
2022-11-04T13:54:38.565Z,-78
2022-11-04T13:57:13.564Z,-77
2022-11-04T13:59:44.175Z,-78
2022-11-04T14:02:40.176Z,-78
2022-11-04T14:05:55.724Z,-78
2022-11-04T14:08:25.103Z,-78
2022-11-04T14:11:08.332Z,-78
2022-11-04T14:14:10.363Z,-78
2022-11-04T14:16:45.983Z,-78
2022-11-04T14:19:59.843Z,-78
2022-11-04T14:22:36.863Z,-77
2022-11-04T14:25:23.638Z,-78
2022-11-04T14:27:53.118Z,-77
2022-11-04T14:30:43.567Z,-77
2022-11-04T14:33:24.173Z,-78
2022-11-04T14:35:52.967Z,-77
2022-11-04T14:38:27.052Z,-78
2022-11-04T14:41:17.182Z,-77
2022-11-04T14:43:47.139Z,-77
2022-11-04T14:46:20.855Z,-78
2022-11-04T14:48:54.247Z,-78
2022-11-04T14:51:26.094Z,-77
2022-11-04T14:53:57.425Z,-77
2022-11-04T14:56:26.953Z,-78
2022-11-04T14:59:01.117Z,-77
2022-11-04T15:01:34.568Z,-77
2022-11-04T15:04:12.600Z,-77
2022-11-04T15:06:54.330Z,-78
2022-11-04T15:09:24.536Z,-77
2022-11-04T15:12:15.452Z,-78
2022-11-04T15:14:43.467Z,-77
2022-11-04T15:17:18.063Z,-78
2022-11-04T15:19:49.440Z,-78
2022-11-04T15:22:17.451Z,-77
2022-11-04T15:24:45.744Z,-76
2022-11-04T15:27:17.068Z,-76
2022-11-04T15:29:55.293Z,-75
2022-11-04T15:32:24.011Z,-76
2022-11-04T15:34:52.363Z,-76
2022-11-04T15:37:22.004Z,-76
2022-11-04T15:39:53.501Z,-79
2022-11-04T15:42:43.062Z,-79
2022-11-04T15:45:29.179Z,-80
2022-11-04T15:48:25.734Z,-78
2022-11-04T15:51:06.209Z,-74
2022-11-04T15:53:35.962Z,-74
2022-11-04T15:56:04.483Z,-75
2022-11-04T15:58:33.968Z,-77
2022-11-04T16:01:02.103Z,-77
2022-11-04T16:03:30.171Z,-77
2022-11-04T16:06:03.958Z,-77
2022-11-04T16:08:33.324Z,-75
2022-11-04T16:11:14.858Z,-76
2022-11-04T16:13:46.158Z,-76
2022-11-04T16:16:26.618Z,-76
2022-11-04T16:18:56.189Z,-75
2022-11-04T16:21:28.302Z,-75
2022-11-04T16:23:58.636Z,-77
2022-11-04T16:26:31.510Z,-77
2022-11-04T16:29:01.942Z,-77
2022-11-04T16:31:35.411Z,-77
2022-11-04T16:34:03.971Z,-77
2022-11-04T16:36:35.668Z,-76
2022-11-04T16:39:08.478Z,-76
2022-11-04T16:41:38.553Z,-76
2022-11-04T16:44:17.116Z,-77
2022-11-04T16:46:45.585Z,-77
2022-11-04T16:49:16.758Z,-77
2022-11-04T16:51:45.298Z,-76
2022-11-04T16:54:13.354Z,-77
2022-11-04T16:56:41.438Z,-77
2022-11-04T16:59:12.798Z,-77
2022-11-04T17:01:40.884Z,-77
2022-11-04T17:04:10.274Z,-77
2022-11-04T17:06:38.748Z,-76
2022-11-04T17:09:16.497Z,-77
2022-11-04T17:11:44.564Z,-78
2022-11-04T17:14:14.238Z,-77
2022-11-04T17:16:42.643Z,-77
2022-11-04T17:19:15.685Z,-77
2022-11-04T17:21:44.308Z,-77
2022-11-04T17:24:12.651Z,-76
2022-11-04T17:26:40.958Z,-77
2022-11-04T17:29:14.401Z,-77
2022-11-04T17:31:46.365Z,-75
2022-11-04T17:34:14.339Z,-76
2022-11-04T17:36:42.544Z,-76
2022-11-04T17:39:10.899Z,-77
2022-11-04T17:41:56.083Z,-74
2022-11-04T17:44:24.210Z,-75
2022-11-04T17:46:53.593Z,-77
2022-11-04T17:49:22.645Z,-75
2022-11-04T17:51:53.671Z,-74
2022-11-04T17:54:22.058Z,-77
2022-11-04T17:56:50.516Z,-77
2022-11-04T17:59:18.542Z,-77
2022-11-04T18:01:47.169Z,-77
2022-11-04T18:04:17.898Z,-75
2022-11-04T18:06:46.503Z,-77
2022-11-04T18:09:15.920Z,-74
2022-11-04T18:12:01.772Z,-75
2022-11-04T18:14:29.784Z,-74
2022-11-04T18:16:57.931Z,-76
2022-11-04T18:19:28.341Z,-76
2022-11-04T18:21:56.343Z,-77
2022-11-04T18:24:24.808Z,-76
2022-11-04T18:26:52.962Z,-77
2022-11-04T18:29:21.159Z,-76
2022-11-04T18:31:49.814Z,-76
2022-11-04T18:34:19.617Z,-76
2022-11-04T18:36:49.515Z,-76
2022-11-04T18:39:19.250Z,-76
2022-11-04T18:41:47.836Z,-76
2022-11-04T18:44:17.875Z,-77
2022-11-04T18:46:46.443Z,-76
2022-11-04T18:49:15.313Z,-76
2022-11-04T18:51:44.071Z,-76
2022-11-04T18:54:13.640Z,-76
2022-11-04T18:56:41.957Z,-76
2022-11-04T18:59:11.358Z,-76
2022-11-04T19:01:39.650Z,-76
2022-11-04T19:04:07.721Z,-76
2022-11-04T19:06:38.633Z,-77
2022-11-04T19:09:40.093Z,-77
2022-11-04T19:12:12.465Z,-77
2022-11-04T19:14:40.792Z,-77
2022-11-04T19:17:08.846Z,-77
2022-11-04T19:19:36.810Z,-77
2022-11-04T19:22:04.835Z,-77
2022-11-04T19:24:32.902Z,-77
2022-11-04T19:27:02.242Z,-77
2022-11-04T19:29:30.284Z,-78
2022-11-04T19:31:58.622Z,-77
2022-11-04T19:34:27.006Z,-78
2022-11-04T19:36:55.028Z,-78
2022-11-04T19:39:23.080Z,-77
2022-11-04T19:42:08.418Z,-78
2022-11-04T19:44:37.890Z,-77
2022-11-04T19:47:05.930Z,-77
2022-11-04T19:49:34.307Z,-78
2022-11-04T19:52:02.294Z,-77
2022-11-04T19:54:30.448Z,-78
2022-11-04T19:56:58.442Z,-78
2022-11-04T19:59:26.732Z,-77
2022-11-04T20:01:56.260Z,-77
2022-11-04T20:04:24.857Z,-77
2022-11-04T20:06:53.150Z,-77
2022-11-04T20:09:22.382Z,-77
2022-11-04T20:12:07.611Z,-78
2022-11-04T20:14:35.651Z,-77
2022-11-04T20:17:06.386Z,-78
2022-11-04T20:19:34.914Z,-77
2022-11-04T20:22:03.425Z,-77
2022-11-04T20:24:31.758Z,-78
2022-11-04T20:26:59.785Z,-78
2022-11-04T20:29:27.762Z,-77
2022-11-04T20:31:55.778Z,-78
2022-11-04T20:34:30.132Z,-75
2022-11-04T20:37:03.004Z,-77
2022-11-04T20:39:35.573Z,-77
2022-11-04T20:42:03.641Z,-77
2022-11-04T20:44:31.675Z,-80
2022-11-04T20:47:00.297Z,-80
2022-11-04T20:49:30.079Z,-80
2022-11-04T20:51:58.110Z,-81
2022-11-04T20:54:26.752Z,-81
2022-11-04T20:56:54.801Z,-80
2022-11-04T20:59:22.794Z,-80
2022-11-04T21:01:50.999Z,-80
2022-11-04T21:04:20.451Z,-80
2022-11-04T21:06:51.386Z,-80
2022-11-04T21:09:20.862Z,-80
2022-11-04T21:11:49.075Z,-81
2022-11-04T21:14:19.365Z,-80
2022-11-04T21:16:47.931Z,-80
2022-11-04T21:19:16.338Z,-80
2022-11-04T21:21:46.252Z,-77
2022-11-04T21:24:16.684Z,-77
2022-11-04T21:26:45.592Z,-77
2022-11-04T21:29:16.753Z,-77
2022-11-04T21:31:45.413Z,-77
2022-11-04T21:34:13.872Z,-77
2022-11-04T21:36:42.621Z,-76
2022-11-04T21:39:13.042Z,-76
2022-11-04T21:41:42.435Z,-77
2022-11-04T21:44:13.079Z,-76
2022-11-04T21:46:41.168Z,-76
2022-11-04T21:49:10.062Z,-76
2022-11-04T21:51:38.432Z,-77
2022-11-04T21:54:07.823Z,-77
2022-11-04T21:56:36.376Z,-77
2022-11-04T21:59:06.647Z,-77
2022-11-04T22:01:35.301Z,-77
2022-11-04T22:04:04.429Z,-77
2022-11-04T22:06:35.519Z,-77
2022-11-04T22:09:05.964Z,-77
2022-11-04T22:11:36.526Z,-81
2022-11-04T22:14:08.643Z,-81
2022-11-04T22:16:38.694Z,-81
2022-11-04T22:19:08.904Z,-80
2022-11-04T22:21:44.480Z,-81
2022-11-04T22:24:13.207Z,-80
2022-11-04T22:26:41.612Z,-81
2022-11-04T22:29:11.737Z,-81
2022-11-04T22:31:42.679Z,-81
2022-11-04T22:34:10.895Z,-81
2022-11-04T22:36:39.707Z,-81
2022-11-04T22:39:11.942Z,-81
2022-11-04T22:41:43.799Z,-81
2022-11-04T22:44:13.551Z,-81
2022-11-04T22:46:41.674Z,-81
